Time;durP1;ratioP1;P1;durP2;ratioP2;P2;SDS_P1;SDS_P2;PMS_P1;PMS_P2;Temp;Humidity;BMP_temperature;BMP_pressure;BME280_temperature;BME280_humidity;BME280_pressure;Samples;Min_cycle;Max_cycle;Signal;HPM_P1;HPM_P2
2024/03/18 00:00:14;;;;;;;9.77;6.25;;;;;;;;;;5020435;28;20107;-76
2024/03/18 00:02:41;;;;;;;10.35;6.90;;;;;;;;;;5014821;28;20061;-77
2024/03/18 00:05:07;;;;;;;9.88;6.13;;;;;;;;;;5016247;28;20052;-77
2024/03/18 00:07:33;;;;;;;9.88;6.45;;;;;;;;;;5020581;28;20045;-77
2024/03/18 00:09:58;;;;;;;10.82;6.45;;;;;;;;;;5012263;28;20051;-77
2024/03/18 00:12:24;;;;;;;9.27;6.82;;;;;;;;;;5006162;28;20056;-78
2024/03/18 00:14:50;;;;;;;11.38;6.78;;;;;;;;;;5008920;28;20240;-78
2024/03/18 00:17:15;;;;;;;10.32;6.32;;;;;;;;;;5012005;28;20057;-77
2024/03/18 00:19:41;;;;;;;9.48;6.85;;;;;;;;;;5020906;28;20143;-75
2024/03/18 00:22:06;;;;;;;9.45;5.60;;;;;;;;;;5030377;28;20061;-77
2024/03/18 00:24:35;;;;;;;9.20;6.40;;;;;;;;;;5020370;28;20057;-77
2024/03/18 00:27:01;;;;;;;11.40;6.35;;;;;;;;;;5020882;28;20103;-77
2024/03/18 00:29:26;;;;;;;7.60;5.75;;;;;;;;;;5021998;28;20049;-78
2024/03/18 00:31:52;;;;;;;9.70;6.43;;;;;;;;;;5026276;28;20052;-78
2024/03/18 00:34:18;;;;;;;9.38;7.00;;;;;;;;;;4996196;28;20045;-78
2024/03/18 00:36:44;;;;;;;7.68;5.28;;;;;;;;;;5009122;28;20056;-76
2024/03/18 00:39:11;;;;;;;8.75;6.43;;;;;;;;;;5036477;28;20151;-78
2024/03/18 00:41:48;;;;;;;7.35;5.53;;;;;;;;;;4996973;28;20061;-77
2024/03/18 00:44:15;;;;;;;10.52;6.80;;;;;;;;;;5040648;28;20049;-78
2024/03/18 00:46:44;;;;;;;9.77;7.05;;;;;;;;;;5014135;28;20050;-77
2024/03/18 00:49:09;;;;;;;9.93;7.13;;;;;;;;;;5028232;28;20110;-77
2024/03/18 00:51:35;;;;;;;9.93;7.22;;;;;;;;;;5032737;28;20560;-78
2024/03/18 00:54:01;;;;;;;11.93;7.20;;;;;;;;;;5009953;28;20128;-77
2024/03/18 00:56:28;;;;;;;10.70;7.75;;;;;;;;;;5028533;28;20720;-78
2024/03/18 00:58:57;;;;;;;9.35;6.63;;;;;;;;;;5003290;28;20805;-75
2024/03/18 01:01:22;;;;;;;10.35;6.93;;;;;;;;;;5011287;28;20061;-76
2024/03/18 01:03:48;;;;;;;10.57;7.25;;;;;;;;;;5024220;28;20126;-76
2024/03/18 01:06:14;;;;;;;10.73;7.07;;;;;;;;;;5021919;28;20075;-77
2024/03/18 01:08:40;;;;;;;10.27;7.82;;;;;;;;;;5023142;28;20065;-77
2024/03/18 01:11:06;;;;;;;11.00;7.10;;;;;;;;;;5014974;28;20089;-74
2024/03/18 01:13:32;;;;;;;11.88;8.35;;;;;;;;;;5017563;28;20489;-77
2024/03/18 01:16:00;;;;;;;12.18;8.52;;;;;;;;;;5017386;28;20049;-76
2024/03/18 01:18:27;;;;;;;12.20;7.85;;;;;;;;;;5033501;28;20045;-76
2024/03/18 01:20:53;;;;;;;14.38;7.75;;;;;;;;;;5013264;28;20101;-77
2024/03/18 01:23:19;;;;;;;11.45;7.30;;;;;;;;;;5021721;28;20061;-78
2024/03/18 01:25:44;;;;;;;11.85;7.57;;;;;;;;;;5017913;28;20108;-77
2024/03/18 01:28:09;;;;;;;9.55;6.47;;;;;;;;;;5021378;28;20049;-77
2024/03/18 01:30:35;;;;;;;10.57;6.28;;;;;;;;;;5026341;28;20107;-77
2024/03/18 01:33:00;;;;;;;9.85;7.03;;;;;;;;;;5026834;28;20080;-76
2024/03/18 01:35:26;;;;;;;11.30;8.15;;;;;;;;;;5022947;28;20091;-77
2024/03/18 01:37:51;;;;;;;11.60;8.30;;;;;;;;;;5029040;28;20059;-77
2024/03/18 01:40:17;;;;;;;9.82;7.78;;;;;;;;;;5025108;28;20060;-77
2024/03/18 01:42:44;;;;;;;14.98;8.15;;;;;;;;;;5034947;28;20056;-77
2024/03/18 01:45:10;;;;;;;12.00;8.43;;;;;;;;;;5016233;28;20049;-78
2024/03/18 01:47:37;;;;;;;11.85;7.85;;;;;;;;;;5016524;28;20134;-78
2024/03/18 01:50:02;;;;;;;12.70;8.52;;;;;;;;;;5020930;28;20049;-77
2024/03/18 01:52:28;;;;;;;11.30;8.45;;;;;;;;;;5026035;28;20637;-77
2024/03/18 01:54:54;;;;;;;11.90;7.97;;;;;;;;;;5027971;28;20058;-77
2024/03/18 01:57:19;;;;;;;12.60;8.48;;;;;;;;;;5037114;28;20136;-76
2024/03/18 01:59:45;;;;;;;13.60;8.77;;;;;;;;;;5018426;28;20045;-77
2024/03/18 02:02:11;;;;;;;14.25;9.25;;;;;;;;;;5015296;28;20153;-77
2024/03/18 02:04:37;;;;;;;11.52;9.25;;;;;;;;;;5010260;28;20060;-77
2024/03/18 02:07:18;;;;;;;13.32;9.70;;;;;;;;;;5019805;28;20053;-77
2024/03/18 02:09:44;;;;;;;14.40;8.60;;;;;;;;;;5010277;28;20049;-77
2024/03/18 02:12:11;;;;;;;11.70;9.05;;;;;;;;;;5010298;28;20989;-76
2024/03/18 02:14:36;;;;;;;12.77;9.65;;;;;;;;;;5022922;28;20075;-77
2024/03/18 02:17:03;;;;;;;14.15;9.65;;;;;;;;;;5000681;28;20054;-77
2024/03/18 02:19:29;;;;;;;16.40;10.40;;;;;;;;;;5037516;28;20049;-75
2024/03/18 02:21:55;;;;;;;18.13;10.45;;;;;;;;;;5021206;28;20053;-77
2024/03/18 02:24:21;;;;;;;13.35;10.05;;;;;;;;;;5025756;28;20057;-78
2024/03/18 02:26:46;;;;;;;13.93;10.00;;;;;;;;;;5013584;28;20076;-77
2024/03/18 02:29:12;;;;;;;14.30;10.57;;;;;;;;;;5020165;28;20404;-76
2024/03/18 02:31:38;;;;;;;14.60;10.05;;;;;;;;;;5061212;28;20265;-78
2024/03/18 02:34:03;;;;;;;14.80;10.35;;;;;;;;;;5020382;28;20048;-77
2024/03/18 02:36:28;;;;;;;12.88;9.45;;;;;;;;;;5028367;28;20045;-78
2024/03/18 02:38:56;;;;;;;14.93;10.77;;;;;;;;;;5022978;28;20056;-77
2024/03/18 02:41:22;;;;;;;15.10;9.98;;;;;;;;;;5022571;28;20103;-77
2024/03/18 02:43:47;;;;;;;16.77;11.45;;;;;;;;;;5029196;28;20057;-75
2024/03/18 02:46:13;;;;;;;14.65;11.00;;;;;;;;;;5017942;28;20048;-77
2024/03/18 02:48:38;;;;;;;15.45;11.43;;;;;;;;;;5023296;28;20098;-77
2024/03/18 02:51:05;;;;;;;15.77;10.93;;;;;;;;;;5024580;28;20485;-77
2024/03/18 02:53:31;;;;;;;16.77;10.25;;;;;;;;;;5010571;28;20094;-77
2024/03/18 02:55:57;;;;;;;16.10;11.18;;;;;;;;;;4999899;28;20045;-77
2024/03/18 02:58:22;;;;;;;15.20;10.93;;;;;;;;;;5017493;28;20041;-77
2024/03/18 03:00:48;;;;;;;16.42;11.57;;;;;;;;;;5020250;28;20049;-77
2024/03/18 03:03:13;;;;;;;15.60;11.05;;;;;;;;;;5008186;28;20149;-77
2024/03/18 03:05:39;;;;;;;14.48;10.18;;;;;;;;;;5009878;28;20076;-77
2024/03/18 03:08:05;;;;;;;13.73;9.60;;;;;;;;;;4999804;28;20037;-79
2024/03/18 03:10:30;;;;;;;14.65;9.95;;;;;;;;;;5021380;28;20049;-80
2024/03/18 03:12:56;;;;;;;19.05;11.10;;;;;;;;;;5011337;28;20045;-80
2024/03/18 03:15:22;;;;;;;19.65;11.10;;;;;;;;;;5003583;28;20057;-80
2024/03/18 03:17:49;;;;;;;14.57;10.80;;;;;;;;;;5034525;28;20060;-80
2024/03/18 03:20:18;;;;;;;17.38;10.82;;;;;;;;;;5018053;28;20489;-80
2024/03/18 03:22:44;;;;;;;16.15;11.35;;;;;;;;;;5026913;28;20057;-80
2024/03/18 03:25:10;;;;;;;18.83;11.13;;;;;;;;;;5023190;28;20111;-78
2024/03/18 03:27:36;;;;;;;14.80;10.52;;;;;;;;;;5027449;28;20613;-81
2024/03/18 03:30:02;;;;;;;17.75;11.90;;;;;;;;;;5025954;28;20060;-80
2024/03/18 03:32:28;;;;;;;17.15;11.90;;;;;;;;;;5016496;28;20052;-80
2024/03/18 03:34:53;;;;;;;16.35;11.13;;;;;;;;;;5025868;28;20057;-81
2024/03/18 03:37:19;;;;;;;18.90;11.27;;;;;;;;;;4990979;28;20049;-79
2024/03/18 03:39:44;;;;;;;19.10;11.45;;;;;;;;;;5031420;28;20127;-80
2024/03/18 03:42:10;;;;;;;14.63;10.15;;;;;;;;;;5030265;28;20783;-80
2024/03/18 03:44:35;;;;;;;16.15;12.05;;;;;;;;;;5015645;28;20085;-80
2024/03/18 03:47:01;;;;;;;15.77;11.35;;;;;;;;;;5038808;28;20045;-79
2024/03/18 03:49:28;;;;;;;13.70;11.23;;;;;;;;;;5032241;28;20098;-79
2024/03/18 03:51:53;;;;;;;17.08;11.40;;;;;;;;;;5014478;28;20052;-80
2024/03/18 03:54:19;;;;;;;19.05;12.73;;;;;;;;;;5010803;28;20049;-79
2024/03/18 03:56:45;;;;;;;19.48;12.75;;;;;;;;;;5029211;28;20569;-80
2024/03/18 03:59:10;;;;;;;18.02;11.90;;;;;;;;;;5019459;28;20049;-78
2024/03/18 04:01:36;;;;;;;14.40;10.27;;;;;;;;;;5018398;28;20057;-79
2024/03/18 04:04:01;;;;;;;16.35;10.15;;;;;;;;;;5031174;28;20060;-77
2024/03/18 04:06:26;;;;;;;14.27;11.02;;;;;;;;;;5013796;28;20516;-79
2024/03/18 04:08:52;;;;;;;13.32;10.82;;;;;;;;;;5030074;28;20609;-78
2024/03/18 04:11:17;;;;;;;19.58;11.85;;;;;;;;;;5029453;28;20049;-78
2024/03/18 04:13:43;;;;;;;19.55;11.55;;;;;;;;;;5006049;28;20493;-79
2024/03/18 04:16:09;;;;;;;17.67;11.68;;;;;;;;;;5030613;28;20056;-80
2024/03/18 04:18:35;;;;;;;17.83;11.43;;;;;;;;;;5017492;28;20064;-77
2024/03/18 04:21:04;;;;;;;16.17;11.43;;;;;;;;;;5016032;28;20085;-77
2024/03/18 04:23:32;;;;;;;20.50;12.07;;;;;;;;;;5011458;28;20076;-76
2024/03/18 04:25:58;;;;;;;15.32;10.60;;;;;;;;;;5023153;28;20099;-78
2024/03/18 04:28:23;;;;;;;19.00;11.10;;;;;;;;;;5030234;28;20100;-78
2024/03/18 04:30:49;;;;;;;16.35;11.88;;;;;;;;;;5015562;28;20060;-76
2024/03/18 04:33:15;;;;;;;13.40;10.48;;;;;;;;;;5026774;28;20060;-77
2024/03/18 04:35:40;;;;;;;17.25;11.68;;;;;;;;;;5009716;28;20243;-76
2024/03/18 04:38:05;;;;;;;17.17;10.90;;;;;;;;;;5019856;28;20061;-78
2024/03/18 04:40:31;;;;;;;18.27;12.15;;;;;;;;;;5011899;28;20448;-77
2024/03/18 04:42:56;;;;;;;18.15;12.30;;;;;;;;;;5007647;28;20040;-77
2024/03/18 04:45:22;;;;;;;20.15;12.20;;;;;;;;;;5028770;28;20515;-75
2024/03/18 04:47:50;;;;;;;16.90;12.57;;;;;;;;;;5034729;28;20124;-77
2024/03/18 04:50:18;;;;;;;18.60;11.40;;;;;;;;;;5023291;28;20057;-78
2024/03/18 04:52:44;;;;;;;16.02;11.35;;;;;;;;;;5041110;28;20052;-77
2024/03/18 04:55:11;;;;;;;16.63;11.75;;;;;;;;;;5015326;28;20044;-77
2024/03/18 04:57:37;;;;;;;18.15;12.10;;;;;;;;;;5025263;28;20061;-77
2024/03/18 05:00:07;;;;;;;15.13;12.32;;;;;;;;;;5019618;28;20107;-77
2024/03/18 05:02:32;;;;;;;20.45;12.50;;;;;;;;;;5004098;28;20103;-77
2024/03/18 05:04:57;;;;;;;16.85;12.68;;;;;;;;;;5027238;28;20056;-76
2024/03/18 05:07:23;;;;;;;18.00;12.13;;;;;;;;;;5028105;28;20042;-77
2024/03/18 05:09:52;;;;;;;14.70;11.23;;;;;;;;;;5023144;28;20052;-77
2024/03/18 05:12:17;;;;;;;18.55;12.20;;;;;;;;;;5021272;28;20048;-77
2024/03/18 05:14:43;;;;;;;17.20;13.68;;;;;;;;;;5021616;28;20034;-77
2024/03/18 05:17:08;;;;;;;15.52;12.38;;;;;;;;;;5014109;28;20102;-77
2024/03/18 05:19:34;;;;;;;20.15;12.60;;;;;;;;;;5032737;28;20521;-77
2024/03/18 05:22:00;;;;;;;18.63;12.27;;;;;;;;;;5029029;28;20053;-78
2024/03/18 05:24:25;;;;;;;19.05;13.35;;;;;;;;;;5002457;28;20050;-77
2024/03/18 05:26:51;;;;;;;22.38;12.57;;;;;;;;;;5013982;28;20052;-77
2024/03/18 05:29:16;;;;;;;18.65;12.82;;;;;;;;;;5019938;28;20049;-77
2024/03/18 05:31:43;;;;;;;20.27;12.68;;;;;;;;;;5006441;28;20118;-76
2024/03/18 05:34:09;;;;;;;19.42;12.77;;;;;;;;;;5023968;28;20056;-77
2024/03/18 05:36:35;;;;;;;16.35;12.68;;;;;;;;;;5011880;28;20483;-77
2024/03/18 05:39:00;;;;;;;20.73;12.68;;;;;;;;;;5032263;28;20114;-77
2024/03/18 05:41:26;;;;;;;18.23;11.93;;;;;;;;;;5011128;28;20558;-77
2024/03/18 05:43:51;;;;;;;15.73;11.77;;;;;;;;;;5009133;28;20057;-77
2024/03/18 05:46:18;;;;;;;15.32;11.02;;;;;;;;;;5023496;28;20099;-77
2024/03/18 05:48:43;;;;;;;15.40;11.95;;;;;;;;;;5034753;28;20072;-77
2024/03/18 05:51:09;;;;;;;15.77;12.15;;;;;;;;;;5023163;28;20111;-77
2024/03/18 05:53:34;;;;;;;19.75;12.27;;;;;;;;;;5006793;28;20809;-78
2024/03/18 05:55:59;;;;;;;16.60;12.20;;;;;;;;;;5019903;28;20141;-75
2024/03/18 05:58:25;;;;;;;17.67;12.13;;;;;;;;;;5017595;28;20045;-77
2024/03/18 06:00:51;;;;;;;17.90;13.18;;;;;;;;;;5013225;28;20061;-78
2024/03/18 06:03:16;;;;;;;16.85;12.95;;;;;;;;;;5010975;28;20451;-76
2024/03/18 06:05:42;;;;;;;18.75;13.27;;;;;;;;;;5028125;28;20057;-77
2024/03/18 06:08:07;;;;;;;19.63;13.65;;;;;;;;;;5016853;28;20080;-77
2024/03/18 06:10:33;;;;;;;20.05;13.57;;;;;;;;;;5019841;28;20048;-77
2024/03/18 06:12:58;;;;;;;21.65;13.80;;;;;;;;;;5022224;28;20046;-77
2024/03/18 06:15:24;;;;;;;21.27;13.73;;;;;;;;;;5017543;28;20048;-77
2024/03/18 06:17:49;;;;;;;21.35;13.88;;;;;;;;;;5029487;28;20521;-77
2024/03/18 06:20:15;;;;;;;21.85;14.40;;;;;;;;;;5017196;28;20057;-77
2024/03/18 06:22:41;;;;;;;22.08;14.32;;;;;;;;;;5018596;28;20069;-77
2024/03/18 06:27:51;;;;;;;21.55;14.57;;;;;;;;;;5011320;28;20060;-76
2024/03/18 06:30:17;;;;;;;23.02;15.13;;;;;;;;;;5026675;28;20135;-76
2024/03/18 06:32:43;;;;;;;24.80;15.35;;;;;;;;;;5010313;28;20045;-77
2024/03/18 06:35:09;;;;;;;20.08;14.82;;;;;;;;;;5039030;28;20068;-77
2024/03/18 06:37:35;;;;;;;24.85;15.65;;;;;;;;;;5027253;28;20064;-78
2024/03/18 06:40:02;;;;;;;23.15;15.23;;;;;;;;;;5015775;28;20059;-75
2024/03/18 06:42:27;;;;;;;24.60;15.32;;;;;;;;;;5031589;28;20045;-78
2024/03/18 06:44:53;;;;;;;20.52;14.57;;;;;;;;;;5007485;28;20049;-78
2024/03/18 06:47:18;;;;;;;21.73;14.07;;;;;;;;;;5026059;28;20104;-78
2024/03/18 06:49:44;;;;;;;23.00;14.65;;;;;;;;;;5031747;28;20053;-77
2024/03/18 06:52:09;;;;;;;23.33;14.63;;;;;;;;;;5022068;28;20053;-77
2024/03/18 06:54:35;;;;;;;22.25;14.40;;;;;;;;;;5044359;28;20060;-77
2024/03/18 06:57:01;;;;;;;21.38;14.30;;;;;;;;;;5009070;28;20075;-77
2024/03/18 06:59:26;;;;;;;21.13;14.98;;;;;;;;;;5030694;28;20444;-77
2024/03/18 07:01:52;;;;;;;21.55;14.75;;;;;;;;;;5010371;28;20481;-77
2024/03/18 07:04:17;;;;;;;24.88;15.05;;;;;;;;;;5020878;28;20045;-77
2024/03/18 07:06:43;;;;;;;21.75;14.23;;;;;;;;;;5006885;28;20079;-76
2024/03/18 07:09:08;;;;;;;20.63;13.13;;;;;;;;;;5006218;28;20050;-76
2024/03/18 07:11:34;;;;;;;21.33;14.30;;;;;;;;;;5034547;28;20053;-77
2024/03/18 07:13:59;;;;;;;26.15;14.60;;;;;;;;;;5028622;28;20135;-77
2024/03/18 07:16:25;;;;;;;24.98;14.23;;;;;;;;;;5015401;28;20103;-77
2024/03/18 07:18:50;;;;;;;23.23;14.57;;;;;;;;;;5014574;28;20053;-77
2024/03/18 07:21:15;;;;;;;23.73;14.52;;;;;;;;;;5013229;28;20053;-77
2024/03/18 07:23:41;;;;;;;21.20;14.32;;;;;;;;;;5030764;28;20075;-77
2024/03/18 07:26:06;;;;;;;22.90;14.45;;;;;;;;;;5025852;28;20056;-77
2024/03/18 07:28:33;;;;;;;22.40;15.10;;;;;;;;;;5018836;28;20406;-75
2024/03/18 07:30:59;;;;;;;21.67;13.77;;;;;;;;;;5039247;28;20059;-77
2024/03/18 07:33:25;;;;;;;22.50;14.32;;;;;;;;;;5028668;28;20061;-77
2024/03/18 07:35:51;;;;;;;22.95;14.73;;;;;;;;;;5058116;28;20059;-76
2024/03/18 07:38:16;;;;;;;23.60;14.93;;;;;;;;;;5026178;28;20057;-76
2024/03/18 07:40:42;;;;;;;22.67;14.55;;;;;;;;;;5025779;28;20065;-77
2024/03/18 07:43:11;;;;;;;24.25;15.07;;;;;;;;;;5003807;28;20160;-77
2024/03/18 07:45:37;;;;;;;20.60;14.30;;;;;;;;;;5012224;28;20068;-77
2024/03/18 07:48:04;;;;;;;26.10;15.65;;;;;;;;;;5027528;28;20094;-77
2024/03/18 07:50:31;;;;;;;28.00;15.65;;;;;;;;;;5017159;28;20061;-77
2024/03/18 07:52:57;;;;;;;29.10;16.80;;;;;;;;;;5014156;28;20180;-77
2024/03/18 07:55:22;;;;;;;24.88;15.43;;;;;;;;;;5023413;28;20072;-76
2024/03/18 07:57:48;;;;;;;26.55;16.60;;;;;;;;;;5017269;28;20044;-76
2024/03/18 08:00:13;;;;;;;29.30;16.27;;;;;;;;;;5013919;28;20055;-75
2024/03/18 08:02:39;;;;;;;23.40;14.75;;;;;;;;;;5013721;28;20061;-75
2024/03/18 08:05:04;;;;;;;26.50;15.82;;;;;;;;;;5025098;28;20052;-75
2024/03/18 08:07:30;;;;;;;23.42;15.30;;;;;;;;;;5022853;28;20053;-75
2024/03/18 08:09:56;;;;;;;25.35;16.85;;;;;;;;;;5033970;28;20053;-75
2024/03/18 08:12:21;;;;;;;20.90;14.88;;;;;;;;;;5012750;28;20735;-75
2024/03/18 08:14:46;;;;;;;27.00;17.10;;;;;;;;;;5010667;28;20053;-75
2024/03/18 08:17:12;;;;;;;27.45;16.63;;;;;;;;;;5022064;28;20057;-75
2024/03/18 08:19:37;;;;;;;31.92;17.33;;;;;;;;;;5011141;28;20083;-75
2024/03/18 08:22:06;;;;;;;27.67;16.75;;;;;;;;;;5037837;28;20051;-75
2024/03/18 08:24:32;;;;;;;29.23;17.30;;;;;;;;;;5007804;28;20630;-75
2024/03/18 08:26:57;;;;;;;30.00;17.50;;;;;;;;;;5022856;28;20072;-74
2024/03/18 08:29:23;;;;;;;29.63;17.10;;;;;;;;;;5008123;28;20444;-75
2024/03/18 08:31:48;;;;;;;29.20;16.75;;;;;;;;;;5008030;28;20049;-74
2024/03/18 08:34:14;;;;;;;29.95;18.00;;;;;;;;;;4998592;28;20052;-75
2024/03/18 08:36:39;;;;;;;27.75;16.98;;;;;;;;;;5025633;28;20071;-75
2024/03/18 08:39:05;;;;;;;29.40;17.80;;;;;;;;;;5029509;28;20052;-75
2024/03/18 08:41:30;;;;;;;25.05;16.77;;;;;;;;;;5013583;28;20053;-75
2024/03/18 08:43:55;;;;;;;28.58;17.17;;;;;;;;;;5009529;28;20053;-75
2024/03/18 08:46:21;;;;;;;27.35;17.63;;;;;;;;;;5026344;28;20172;-75
2024/03/18 08:48:46;;;;;;;23.65;14.63;;;;;;;;;;5013702;28;20052;-75
2024/03/18 08:51:13;;;;;;;24.30;16.48;;;;;;;;;;5034336;28;20052;-75
2024/03/18 08:53:38;;;;;;;27.67;14.57;;;;;;;;;;5024411;28;20049;-76
2024/03/18 08:56:04;;;;;;;24.13;14.13;;;;;;;;;;5029126;28;20141;-76
2024/03/18 08:58:29;;;;;;;23.60;14.40;;;;;;;;;;5008870;28;20055;-77
2024/03/18 09:01:01;;;;;;;25.05;14.43;;;;;;;;;;5017991;28;20057;-75
2024/03/18 09:03:27;;;;;;;23.67;14.25;;;;;;;;;;5032364;28;20053;-75
2024/03/18 09:05:55;;;;;;;27.05;14.27;;;;;;;;;;5015845;28;20485;-76
2024/03/18 09:08:21;;;;;;;26.73;15.45;;;;;;;;;;5013475;28;20049;-76
2024/03/18 09:10:47;;;;;;;25.60;15.52;;;;;;;;;;5024263;28;20080;-75
2024/03/18 09:13:14;;;;;;;22.95;16.10;;;;;;;;;;5025432;28;20137;-76
2024/03/18 09:15:39;;;;;;;31.40;16.60;;;;;;;;;;5023096;28;20053;-76
2024/03/18 09:18:06;;;;;;;24.15;15.02;;;;;;;;;;5019270;28;20055;-76
2024/03/18 09:20:31;;;;;;;21.85;13.82;;;;;;;;;;5029628;28;20072;-76
2024/03/18 09:22:57;;;;;;;25.42;15.18;;;;;;;;;;5007540;28;20478;-76
2024/03/18 09:25:22;;;;;;;24.65;14.63;;;;;;;;;;5041867;28;20099;-76
2024/03/18 09:27:48;;;;;;;29.05;14.60;;;;;;;;;;5004657;28;20061;-76
2024/03/18 09:30:16;;;;;;;25.10;14.35;;;;;;;;;;5028392;28;20056;-76
2024/03/18 09:32:42;;;;;;;26.85;15.57;;;;;;;;;;5027967;28;20053;-76
2024/03/18 09:35:07;;;;;;;29.05;15.18;;;;;;;;;;5023831;28;20089;-76
2024/03/18 09:37:33;;;;;;;25.38;15.27;;;;;;;;;;5024748;28;20663;-76
2024/03/18 09:39:59;;;;;;;27.80;15.45;;;;;;;;;;5016123;28;20045;-76
2024/03/18 09:42:27;;;;;;;25.77;14.93;;;;;;;;;;5016233;28;20041;-76
2024/03/18 09:44:52;;;;;;;26.23;14.48;;;;;;;;;;5013441;28;20717;-77
2024/03/18 09:47:22;;;;;;;26.63;14.90;;;;;;;;;;5021021;28;20099;-76
2024/03/18 09:49:48;;;;;;;27.75;14.57;;;;;;;;;;5032352;28;20090;-76
2024/03/18 09:52:14;;;;;;;24.65;14.15;;;;;;;;;;5008431;28;20046;-76
2024/03/18 09:54:40;;;;;;;29.65;15.63;;;;;;;;;;5006968;28;20059;-76
2024/03/18 09:57:13;;;;;;;26.83;15.80;;;;;;;;;;5015348;28;20041;-75
2024/03/18 09:59:40;;;;;;;28.67;15.48;;;;;;;;;;5028634;28;20060;-76
2024/03/18 10:02:12;;;;;;;26.20;15.65;;;;;;;;;;5037084;28;20658;-76
2024/03/18 10:04:37;;;;;;;28.20;14.77;;;;;;;;;;5018862;28;20057;-76
2024/03/18 10:07:03;;;;;;;26.88;15.27;;;;;;;;;;5015385;28;20060;-76
2024/03/18 10:09:30;;;;;;;24.10;14.43;;;;;;;;;;5018708;28;20052;-76
2024/03/18 10:11:55;;;;;;;24.42;13.90;;;;;;;;;;5030748;28;20084;-76
2024/03/18 10:14:21;;;;;;;21.67;12.43;;;;;;;;;;5013753;28;20088;-77
2024/03/18 10:16:46;;;;;;;17.13;9.57;;;;;;;;;;5020073;28;20053;-77
2024/03/18 10:19:16;;;;;;;21.20;12.80;;;;;;;;;;5019311;28;20065;-76
2024/03/18 10:21:41;;;;;;;21.00;12.68;;;;;;;;;;5018767;28;20056;-76
2024/03/18 10:24:07;;;;;;;22.52;13.52;;;;;;;;;;5017077;28;20470;-77
2024/03/18 10:26:33;;;;;;;23.55;13.35;;;;;;;;;;5030775;28;20053;-77
2024/03/18 10:28:59;;;;;;;22.25;13.30;;;;;;;;;;5030562;28;20045;-77
2024/03/18 10:31:25;;;;;;;23.67;13.15;;;;;;;;;;5037506;28;20053;-76
2024/03/18 10:33:51;;;;;;;20.77;12.23;;;;;;;;;;5025577;28;20425;-76
2024/03/18 10:36:21;;;;;;;23.60;12.88;;;;;;;;;;5010187;28;20057;-77
2024/03/18 10:38:52;;;;;;;21.45;12.50;;;;;;;;;;5017360;28;20060;-76
2024/03/18 10:41:20;;;;;;;19.70;12.40;;;;;;;;;;5013324;28;20050;-76
2024/03/18 10:43:50;;;;;;;20.58;11.18;;;;;;;;;;5021826;28;20052;-76
2024/03/18 10:46:16;;;;;;;25.05;12.63;;;;;;;;;;5033392;28;20045;-76
2024/03/18 10:48:42;;;;;;;15.98;9.98;;;;;;;;;;5037444;28;20057;-80
2024/03/18 10:51:11;;;;;;;17.67;10.25;;;;;;;;;;5019389;28;20043;-78
2024/03/18 10:53:37;;;;;;;14.30;8.80;;;;;;;;;;5031525;28;20045;-78
2024/03/18 10:56:02;;;;;;;15.38;9.23;;;;;;;;;;5008641;28;20493;-78
2024/03/18 10:58:29;;;;;;;14.70;8.75;;;;;;;;;;5021158;28;20041;-79
2024/03/18 11:00:55;;;;;;;14.98;9.15;;;;;;;;;;5007891;28;20056;-79
2024/03/18 11:03:21;;;;;;;14.95;8.55;;;;;;;;;;5011226;28;20053;-79
2024/03/18 11:05:48;;;;;;;17.00;9.98;;;;;;;;;;5006580;28;20060;-77
2024/03/18 11:08:15;;;;;;;17.30;10.95;;;;;;;;;;5013487;28;20044;-78
2024/03/18 11:10:41;;;;;;;20.63;11.27;;;;;;;;;;5016582;28;20836;-79
2024/03/18 11:13:11;;;;;;;18.00;10.73;;;;;;;;;;5020118;28;20056;-79
2024/03/18 11:15:37;;;;;;;20.38;11.38;;;;;;;;;;5016412;28;20060;-78
2024/03/18 11:18:04;;;;;;;19.23;11.43;;;;;;;;;;5016526;28;20065;-78
2024/03/18 11:20:29;;;;;;;18.52;10.57;;;;;;;;;;4997793;28;20053;-77
2024/03/18 11:22:56;;;;;;;22.48;12.25;;;;;;;;;;5014156;28;20421;-77
2024/03/18 11:25:24;;;;;;;20.88;11.35;;;;;;;;;;5002772;28;20536;-77
2024/03/18 11:27:50;;;;;;;19.45;11.55;;;;;;;;;;5019830;28;20474;-76
2024/03/18 11:30:34;;;;;;;21.20;12.63;;;;;;;;;;4995715;28;20049;-77
2024/03/18 11:33:09;;;;;;;17.75;11.68;;;;;;;;;;5020741;28;20045;-76
2024/03/18 11:35:35;;;;;;;21.98;12.65;;;;;;;;;;5009478;28;20068;-78
2024/03/18 11:38:01;;;;;;;21.73;12.45;;;;;;;;;;5014316;28;20056;-78
2024/03/18 11:40:28;;;;;;;21.48;12.73;;;;;;;;;;5009448;28;20702;-76
2024/03/18 11:43:00;;;;;;;25.13;12.95;;;;;;;;;;5022989;28;20464;-77
2024/03/18 11:45:25;;;;;;;27.23;12.95;;;;;;;;;;5013821;28;20049;-77
2024/03/18 11:48:00;;;;;;;27.10;12.88;;;;;;;;;;5026823;28;20131;-78
2024/03/18 11:50:28;;;;;;;23.75;12.20;;;;;;;;;;5023934;28;20053;-79
2024/03/18 11:52:54;;;;;;;21.70;12.55;;;;;;;;;;5031682;28;20434;-79
2024/03/18 11:55:19;;;;;;;24.10;11.82;;;;;;;;;;5023548;28;20053;-78
2024/03/18 11:57:44;;;;;;;20.25;11.15;;;;;;;;;;5010514;28;20576;-77
2024/03/18 12:00:13;;;;;;;26.33;11.85;;;;;;;;;;5004477;28;20050;-79
2024/03/18 12:02:40;;;;;;;21.23;11.00;;;;;;;;;;4992068;28;20052;-78
2024/03/18 12:05:06;;;;;;;22.30;11.93;;;;;;;;;;5018948;28;20322;-79
2024/03/18 12:07:32;;;;;;;20.23;11.18;;;;;;;;;;5034792;28;20049;-78
2024/03/18 12:09:58;;;;;;;21.88;11.88;;;;;;;;;;5029671;28;20049;-79
2024/03/18 12:12:23;;;;;;;23.05;11.50;;;;;;;;;;5008484;28;20060;-78
2024/03/18 12:14:49;;;;;;;22.70;10.50;;;;;;;;;;5022626;28;20052;-78
2024/03/18 12:17:14;;;;;;;22.90;10.32;;;;;;;;;;5016434;28;20060;-79
2024/03/18 12:19:48;;;;;;;20.95;9.82;;;;;;;;;;5019125;28;20062;-80
2024/03/18 12:22:18;;;;;;;24.38;9.32;;;;;;;;;;5013246;28;20474;-79
2024/03/18 12:30:18;;;;;;;19.88;9.23;;;;;;;;;;5016839;28;20745;-77
2024/03/18 12:32:48;;;;;;;15.45;8.57;;;;;;;;;;5032998;28;20467;-77
2024/03/18 12:35:13;;;;;;;18.75;8.60;;;;;;;;;;5008555;28;20060;-78
2024/03/18 12:37:45;;;;;;;24.45;9.75;;;;;;;;;;5029112;28;20052;-77
2024/03/18 12:40:12;;;;;;;20.50;9.07;;;;;;;;;;5025393;28;20053;-77
2024/03/18 12:42:38;;;;;;;17.23;8.32;;;;;;;;;;5010544;28;20049;-77
2024/03/18 12:45:04;;;;;;;17.10;8.23;;;;;;;;;;5002939;28;20064;-78
2024/03/18 12:47:29;;;;;;;20.17;7.60;;;;;;;;;;5027285;28;20055;-78
2024/03/18 12:49:55;;;;;;;19.08;7.65;;;;;;;;;;5025190;28;20048;-78
2024/03/18 12:52:21;;;;;;;22.60;8.73;;;;;;;;;;5025448;28;20640;-78
2024/03/18 12:54:46;;;;;;;21.15;7.45;;;;;;;;;;5025347;28;20064;-78
2024/03/18 12:57:12;;;;;;;15.88;7.65;;;;;;;;;;5013298;28;20041;-78
2024/03/18 12:59:37;;;;;;;20.45;6.95;;;;;;;;;;5021656;28;20509;-78
2024/03/18 13:02:04;;;;;;;14.07;6.45;;;;;;;;;;5019803;28;20405;-78
2024/03/18 13:04:29;;;;;;;18.08;6.28;;;;;;;;;;5009411;28;20045;-78
2024/03/18 13:06:57;;;;;;;16.48;5.72;;;;;;;;;;5016355;28;20137;-78
2024/03/18 13:09:26;;;;;;;16.83;5.65;;;;;;;;;;5015191;28;20117;-78
2024/03/18 13:11:52;;;;;;;11.57;3.95;;;;;;;;;;5018550;28;20063;-78
2024/03/18 13:14:21;;;;;;;12.68;3.97;;;;;;;;;;5016294;28;20085;-78
2024/03/18 13:16:46;;;;;;;11.68;3.80;;;;;;;;;;5021670;28;20049;-78
2024/03/18 13:19:12;;;;;;;13.27;3.80;;;;;;;;;;4997809;28;20078;-82
2024/03/18 13:21:37;;;;;;;14.52;3.80;;;;;;;;;;5005542;28;20064;-76
2024/03/18 13:24:03;;;;;;;14.95;3.53;;;;;;;;;;5020229;28;20059;-76
2024/03/18 13:26:29;;;;;;;13.57;4.47;;;;;;;;;;5006950;28;20044;-75
2024/03/18 13:28:54;;;;;;;16.13;4.43;;;;;;;;;;5010393;28;20394;-75
2024/03/18 13:31:23;;;;;;;12.93;3.55;;;;;;;;;;5025090;28;20045;-76
2024/03/18 13:33:49;;;;;;;14.15;3.95;;;;;;;;;;5017685;28;20056;-76
2024/03/18 13:36:15;;;;;;;15.77;3.25;;;;;;;;;;5036618;28;20060;-76
2024/03/18 13:38:41;;;;;;;7.10;1.85;;;;;;;;;;5023005;28;20060;-79
2024/03/18 13:41:12;;;;;;;12.05;2.13;;;;;;;;;;5005838;28;20072;-78
2024/03/18 13:43:40;;;;;;;4.70;1.40;;;;;;;;;;5015539;28;20056;-77
2024/03/18 13:46:06;;;;;;;4.47;1.27;;;;;;;;;;5008162;28;20041;-76
2024/03/18 13:48:31;;;;;;;7.38;1.48;;;;;;;;;;5033307;28;20044;-76
2024/03/18 13:50:59;;;;;;;6.95;1.55;;;;;;;;;;5015793;28;20556;-76
2024/03/18 13:53:25;;;;;;;8.30;1.50;;;;;;;;;;5014965;28;20045;-77
2024/03/18 13:55:50;;;;;;;9.60;1.80;;;;;;;;;;5008127;28;20584;-77
2024/03/18 13:58:16;;;;;;;6.65;1.77;;;;;;;;;;5023729;28;20045;-77
2024/03/18 14:00:41;;;;;;;6.75;1.65;;;;;;;;;;5023529;28;20401;-76
2024/03/18 14:03:07;;;;;;;7.65;1.55;;;;;;;;;;5026640;28;20409;-76
2024/03/18 14:05:33;;;;;;;8.30;1.50;;;;;;;;;;5041193;28;20059;-76
2024/03/18 14:07:59;;;;;;;6.43;1.50;;;;;;;;;;5030358;28;20090;-77
2024/03/18 14:10:25;;;;;;;6.45;1.60;;;;;;;;;;5027399;28;20119;-76
2024/03/18 14:12:50;;;;;;;9.88;1.73;;;;;;;;;;5031121;28;20052;-77
2024/03/18 14:15:16;;;;;;;5.30;1.42;;;;;;;;;;5027785;28;20182;-79
2024/03/18 14:17:43;;;;;;;7.18;1.48;;;;;;;;;;5023485;28;20053;-77
2024/03/18 14:20:09;;;;;;;5.90;1.67;;;;;;;;;;5027668;28;20048;-77
2024/03/18 14:22:36;;;;;;;5.38;1.45;;;;;;;;;;5010058;28;20433;-80
2024/03/18 14:25:03;;;;;;;7.25;1.27;;;;;;;;;;5023240;28;20393;-77